Weather observations for the past three days for
Sturgis, Kirsch Municipal Airport
Metric (Imperial)
Date Time (edt) Wind (kph) Vis. (km) Weather Sky Cond. Temperature (ºC) Relative Humidity Wind Chill (°C) Heat Index (°C) Pressure Precipitation (cm)
Air Dwpt 6 hour altimeter (cm) sea level (mb) 1 hr 3 hr 6 hr
Max. Min.
07 14:55 W 15 G 30 16.09 Fair CLR 13 -2 36% 75.97 0.0
07 14:35 W 22 G 39 16.09 Fair CLR 13 -1 38% 76 0.0
07 14:16 W 19 G 33 16.09 Partly Cloudy SCT060 12 -1 41% 76.02 0.0
07 13:55 NW 24 G 33 16.09 A Few Clouds FEW060 12 -1 12.4 5.1 41% 76.02 0.0
07 13:35 NW 19 G 30 16.09 A Few Clouds FEW060 12 -1 41% 76.02 0.0
07 13:15 NW 19 G 31 16.09 A Few Clouds FEW060 12 -1 41% 76.05 0.0
07 12:55 W 19 16.09 A Few Clouds FEW055 11 -2 41% 76.07 0.0
07 12:35 W 26 G 35 16.09 Mostly Cloudy SCT055 BKN075 11 -1 44% 76.1 0.0
07 12:15 NW 19 G 30 16.09 Mostly Cloudy BKN075 11 -1 44% 76.12 0.0
07 11:56 W 22 G 31 16.09 A Few Clouds FEW075 11 -1 44% 76.12 0.0
07 11:35 W 20 G 28 16.09 Fair CLR 10 -1 47% 8 76.1 0.0
07 11:15 NW 22 16.09 Fair CLR 10 -2 43% 7 76.1 0.0
07 10:55 NW 19 16.09 Fair CLR 9 -2 46% 7 76.1 0.0
07 10:35 W 22 16.09 Fair CLR 9 -1 50% 6 76.1 0.0
07 10:15 W 22 G 30 16.09 Fair CLR 8 -2 50% 5 76.1 0.0
07 09:55 W 19 G 31 16.09 Fair CLR 8 -2 50% 5 76.1 0.0
07 09:36 W 24 16.09 Fair CLR 8 -2 50% 5 76.12 0.0
07 09:15 W 15 16.09 Fair CLR 7 0 61% 5 76.1 0.0
07 08:55 Vrbl 11 16.09 Fair CLR 7 0 61% 5 76.1 0.0
07 08:35 W 13 16.09 Fair CLR 6 0 66% 4 76.1 0.0
07 08:15 W 15 16.09 Fair CLR 6 0 66% 3 76.1 0.0
07 07:55 W 15 16.09 Fair CLR 5 1 7.5 3.1 76% 2 76.1 0.0
07 07:35 W 9 16.09 Fair CLR 4 1 81% 2 76.07 0.0
07 07:16 SW 7 16.09 Fair CLR 3 0 81% 1 76.07 0.0
07 06:55 W 9 16.09 Fair CLR 3 0 81% 1 76.05 0.0
07 06:35 W 9 16.09 Fair CLR 4 0 75% 2 76.05 0.0
07 06:15 W 7 16.09 Fair CLR 4 0 75% 2 76.05 0.0
07 05:55 W 9 16.09 Fair CLR 4 0 75% 2 76.02 0.0
07 05:35 W 9 16.09 Fair CLR 4 -1 70% 2 76.02 0.0
07 05:15 NW 9 16.09 Fair CLR 4 -1 70% 2 76.02 0.0
07 04:56 NW 7 16.09 Fair CLR 5 -1 66% 4 76.02 0.0
07 04:35 NW 11 16.09 Fair CLR 5 0 70% 3 76.02 0.0
07 04:15 W 9 16.09 Fair CLR 5 0 70% 3 76.02 0.0
07 03:55 NW 9 16.09 Fair CLR 5 -1 66% 3 76.02 0.0
07 03:35 W 9 16.09 Fair CLR 6 -1 61% 4 76.02 0.0
07 03:15 W 11 16.09 Fair CLR 6 -1 61% 4 76.02 0.0
07 02:55 W 11 16.09 A Few Clouds FEW075 6 -1 61% 4 76.02 0.0
07 02:36 W 13 16.09 Mostly Cloudy BKN075 7 -1 57% 5 76.02 0.0
07 02:15 W 11 16.09 Overcast OVC075 7 0 61% 5 76.05 0.0
07 01:55 W 13 16.09 Overcast OVC075 7 0 11.1 6.7 61% 5 76.05 0.0
07 01:35 W 11 16.09 Mostly Cloudy BKN075 7 0 61% 5 76.05 0.0
07 01:15 W 13 16.09 Mostly Cloudy BKN065 8 0 57% 6 76.05 0.0
07 00:55 W 9 16.09 Partly Cloudy SCT065 7 0 61% 5 76.05 0.0
07 00:35 W 7 16.09 Partly Cloudy SCT085 8 0 57% 7 76.02 0.0
07 00:16 W 7 16.09 Overcast OVC085 8 0 57% 7 76.02 0.0
06 23:55 W 13 16.09 Overcast OVC085 9 0 54% 7 76.02 0.0
06 23:35 W 13 16.09 Overcast OVC085 9 0 54% 7 76.02 0.0
06 23:15 W 11 16.09 Overcast OVC085 9 1 58% 8 76.02 0.0
06 22:55 SW 4 16.09 Overcast BKN070 OVC085 9 2 62% 76.02 0.0
06 22:35 SW 6 16.09 Overcast OVC070 9 2 62% 76.02 0.0
06 22:15 SW 6 16.09 Overcast OVC070 10 1 54% 76.02 0.0
06 21:56 SW 6 16.09 Overcast BKN070 OVC080 10 0 50% 76 0.0
06 21:35 W 4 16.09 Overcast BKN070 OVC080 10 0 50% 76 0.0
06 21:15 W 4 16.09 Overcast BKN070 OVC085 10 -1 47% 76 0.0
06 20:55 NW 6 16.09 Overcast OVC085 10 -2 43% 76 0.0
06 20:35 NW 7 16.09 Overcast FEW070 SCT075 OVC085 11 -2 41% 75.97 0.0
06 20:15 NW 9 16.09 Overcast BKN070 OVC085 11 -2 41% 76 0.0
06 19:55 NW 11 16.09 Overcast BKN070 OVC085 11 -2 13.5 10.9 41% 75.97 0.0
06 19:36 NW 13 16.09 Overcast BKN080 OVC085 11 -2 41% 75.97 0.0
06 19:15 W 17 16.09 Overcast OVC080 12 -2 38% 75.97 0.0
06 18:55 W 17 16.09 Mostly Cloudy BKN070 BKN080 12 -2 38% 75.97 0.0
06 18:35 W 13 16.09 Mostly Cloudy BKN070 12 -2 38% 75.97 0.0
06 18:15 W 13 16.09 Mostly Cloudy BKN070 12 -2 38% 75.97 0.0
06 17:55 W 13 16.09 Overcast OVC070 12 -3 35% 75.97 0.0
06 17:35 W 19 16.09 Mostly Cloudy BKN070 12 -3 35% 75.97 0.0
06 17:16 W 22 G 33 16.09 A Few Clouds FEW070 12 -3 35% 75.97 0.0
06 16:55 NW 20 G 28 16.09 A Few Clouds FEW070 12 -3 35% 75.97 0.0
06 16:35 W 22 16.09 Fair CLR 12 -2 38% 75.97 0.0
06 16:15 W 24 G 31 16.09 A Few Clouds FEW065 12 -3 35% 76 0.0
06 15:55 NW 20 G 33 16.09 Partly Cloudy SCT065 13 -2 36% 76 0.0
06 15:35 NW 19 16.09 Mostly Cloudy BKN065 12 -2 38% 76 0.0
06 15:15 W 17 G 31 16.09 A Few Clouds FEW065 13 -1 38% 76 0.0
06 14:56 W 13 16.09 Partly Cloudy SCT065 13 -1 38% 76 0.0
06 14:35 W 17 G 28 16.09 Partly Cloudy SCT065 12 -2 38% 76 0.0
06 14:15 NW 20 16.09 A Few Clouds FEW065 12 -2 38% 76 0.0
06 13:55 W 22 G 30 16.09 A Few Clouds FEW065 12 -3 12.5 6.3 35% 76 0.0
06 13:35 W 13 G 28 16.09 A Few Clouds FEW065 12 -3 35% 76 0.0
06 13:15 Vrbl 7 16.09 Fair CLR 12 -3 35% 76 0.0
06 12:55 NW 13 16.09 Fair CLR 12 -2 38% 76 0.0
06 12:36 Vrbl 9 16.09 Fair CLR 11 -4 35% 76.02 0.0
06 12:15 N 13 16.09 Fair CLR 11 -4 35% 76.02 0.0
06 11:55 NW 9 16.09 Fair CLR 10 -4 37% 9 76.02 0.0
06 11:35 NW 17 16.09 Fair CLR 10 -4 37% 8 76.02 0.0
06 11:15 N 19 16.09 Fair CLR 10 -4 37% 8 76.02 0.0
06 10:55 N 13 16.09 Fair CLR 10 -4 37% 8 76.02 0.0
06 10:35 NW 15 16.09 Fair CLR 10 -4 37% 8 76 0.0
06 10:16 NW 19 16.09 Fair CLR 10 -4 37% 8 76 0.0
06 09:55 N 13 16.09 Fair CLR 9 -3 43% 7 75.97 0.0
06 09:35 NW 17 16.09 Fair CLR 9 -3 43% 7 75.97 0.0
06 09:15 N 17 16.09 Fair CLR 9 -2 46% 7 75.95 0.0
06 08:55 N 19 16.09 Fair CLR 8 -2 50% 5 75.92 0.0
06 08:35 N 11 16.09 Fair CLR 8 -2 50% 6 75.95 0.0
06 08:15 N 13 16.09 Fair CLR 7 -2 53% 5 75.92 0.0
06 07:56 N 13 16.09 Fair CLR 6 -1 61% 4 75.9 0.0
06 07:35 N 4 16.09 Fair CLR 6 -1 61% 75.84 0.0
06 07:15 N 6 16.09 Fair CLR 5 -1 66% 75.84 0.0
06 06:55 N 6 16.09 Fair CLR 5 -1 66% 75.82 0.0
06 06:35 NW 6 16.09 Fair CLR 5 -1 66% 75.82 0.0
06 06:15 NW 4 16.09 Fair CLR 5 -1 66% 75.79 0.0
06 05:55 N 6 16.09 Fair CLR 5 -1 66% 75.79 0.0
06 05:36 N 7 16.09 Fair CLR 6 0 66% 5 75.77 0.0
06 05:15 N 7 16.09 A Few Clouds FEW120 6 0 66% 5 75.79 0.0
06 04:55 N 11 16.09 Mostly Cloudy BKN120 7 0 61% 5 75.77 0.0
06 04:35 N 13 16.09 Overcast FEW100 OVC120 7 0 61% 5 75.74 0.0
06 04:15 N 13 16.09 Overcast BKN100 OVC120 8 1 62% 6 75.72 0.0
06 03:55 N 15 16.09 Overcast OVC100 8 1 62% 6 75.72 0.0
06 03:35 N 9 16.09 Overcast OVC110 8 2 66% 7 75.69 0.0
06 03:16 N 7 16.09 Overcast OVC110 8 2 66% 7 75.72 0.0
06 02:55 NW 9 16.09 Overcast BKN095 OVC110 8 2 66% 7 75.74 0.0
06 02:35 NW 6 16.09 Overcast SCT095 OVC120 8 2 66% 75.74 0.0
06 02:15 NW 6 16.09 Overcast SCT085 OVC120 8 3 71% 75.72 0.0
06 01:55 NW 6 16.09 Overcast OVC085 8 3 9.8 8 71% 75.74 0.0
06 01:35 NW 6 16.09 Overcast OVC085 8 2 66% 75.77 0.0
06 01:15 NW 6 16.09 Overcast OVC085 8 2 66% 75.74 0.0
06 00:56 NW 6 16.09 Overcast OVC085 8 3 71% 75.74 0.0
06 00:35 NW 6 16.09 Overcast OVC110 8 5 82% 75.72 0.0
06 00:15 N 4 16.09 Overcast OVC110 8 5 82% 75.69 0.0
05 23:55 NW 4 16.09 Overcast OVC110 8 5 82% 75.72 0.0
05 23:35 N 4 16.09 Overcast OVC110 8 5 82% 75.72 0.0
05 23:15 W 4 16.09 Overcast OVC090 9 4 71% 75.72 0.0
05 22:55 W 2 16.09 Overcast OVC090 9 3 66% 75.72 0.0
05 22:36 NW 2 16.09 Overcast OVC080 9 3 66% 75.69 0.0
05 22:15 NW 2 16.09 Overcast OVC080 9 0 54% 75.72 0.0
05 21:55 NW 4 16.09 Overcast OVC080 9 2 62% 75.69 0.0
05 21:35 N 4 16.09 Overcast OVC080 9 3 66% 75.67 0.0
05 21:15 N 4 16.09 Overcast OVC080 9 2 62% 75.67 0.0
05 20:55 N 4 16.09 Overcast OVC080 9 1 58% 75.64 0.0
05 20:35 N 6 16.09 Overcast OVC090 10 1 54% 75.64 0.0
05 20:16 N 6 16.09 Overcast OVC090 10 0 50% 75.64 0.0
05 19:55 N 7 16.09 Overcast OVC090 10 1 12.2 9.7 54% 9 75.64 0.0
05 19:35 NW 4 16.09 Overcast OVC090 10 -1 47% 75.67 0.0
05 19:15 NW 9 16.09 Overcast OVC090 10 -1 47% 9 75.69 0.0
05 18:55 NW 7 16.09 Overcast OVC100 10 -1 47% 9 75.67 0.0
05 18:35 NW 13 16.09 Mostly Cloudy BKN110 10 -1 47% 8 75.67 0.0
05 18:15 NW 13 16.09 Partly Cloudy SCT120 10 -1 47% 8 75.67 0.0
05 17:56 NW 13 16.09 Mostly Cloudy FEW070 BKN120 10 -2 43% 8 75.67 0.0
05 17:35 NW 17 16.09 Mostly Cloudy FEW070 BKN120 11 -2 41% 75.69 0.0
05 17:15 NW 15 16.09 Partly Cloudy SCT070 11 0 47% 75.67 0.0
05 16:55 NW 15 G 31 16.09 Fair CLR 11 1 50% 75.64 0.0
05 16:35 NW 17 16.09 Fair CLR 12 2 51% 75.64 0.0
05 16:15 NW 17 16.09 Partly Cloudy SCT075 SCT090 12 3 54% 75.67 0.0
05 15:55 NW 15 16.09 Overcast OVC075 12 3 54% 75.67 0.0
05 15:36 NW 13 16.09 Overcast OVC075 12 3 54% 75.67 0.0
05 15:15 NW 19 16.09 Overcast OVC075 12 4 58% 75.69 0.0
05 14:55 W 9 16.09 Overcast OVC075 11 3 58% 75.67 0.0
05 14:35 W 13 16.09 Overcast OVC075 11 3 58% 75.67 0.0
05 14:15 W 11 16.09 Overcast FEW050 OVC075 11 3 58% 75.67 0.0
05 13:55 W 13 16.09 Overcast OVC075 11 4 11.6 7 62% 75.69 0.0
05 13:35 NW 15 16.09 Overcast OVC075 11 3 58% 75.67 0.0
05 13:16 W 13 16.09 Overcast OVC075 10 3 62% 8 75.67 0.0
05 12:55 W 15 16.09 Mostly Cloudy BKN085 10 4 67% 8 75.64 0.0
05 12:35 Vrbl 7 16.09 Overcast OVC085 9 4 71% 8 75.62 0.0
05 12:15 NW 9 16.09 Overcast OVC095 8 4 76% 7 75.64 0.0
05 11:55 NW 9 16.09 Light Rain OVC085 7 4 81% 5 75.64 0.0 0.03
05 11:35 NW 11 16.09 Light Rain OVC085 7 6 93% 5 75.64 0.0
05 11:15 NW 13 16.09 Light Rain FEW065 OVC080 7 6 93% 5 75.67 0.0
05 10:56 NW 9 14.48 Light Rain BKN075 OVC085 7 5 87% 5 75.69 0.0
05 10:35 NW 19 16.09 Light Drizzle OVC075 8 5 82% 5 75.67 0.0
05 10:15 NW 22 16.09 Overcast OVC085 9 4 71% 6 75.64 0.0
05 09:55 NW 15 16.09 Overcast OVC085 10 4 67% 8 75.59 0.0
05 09:35 NW 17 16.09 Mostly Cloudy BKN085 11 3 58% 75.59 0.0
05 09:15 NW 20 16.09 Fair CLR 11 4 62% 75.51 0.0
05 08:55 NW 19 G 26 16.09 Partly Cloudy SCT090 11 4 62% 75.49 0.0
05 08:36 W 15 16.09 Mostly Cloudy BKN090 11 4 62% 75.51 0.0
05 08:15 W 13 16.09 Mostly Cloudy BKN080 11 5 67% 75.41 0.0
05 07:55 W 7 16.09 Partly Cloudy SCT090 11 5 13.8 10.4 67% 75.39 0.0
05 07:35 NW 9 16.09 Overcast OVC090 11 4 62% 75.39 0.0
05 07:15 NW 13 16.09 Overcast OVC090 11 4 62% 75.39 0.0
05 06:55 NW 15 16.09 Overcast OVC080 11 5 67% 75.39 0.0
05 06:35 NW 13 16.09 Mostly Cloudy BKN090 12 8 77% 75.34 0.0
05 06:16 W 11 16.09 Fair CLR 12 11 94% 75.34 0.0
05 05:55 W 9 16.09 Fair CLR 12 11 94% 75.26 0.0
05 05:35 W 9 16.09 Fair CLR 12 11 94% 75.26 0.0
05 05:15 W 17 16.09 A Few Clouds FEW080 13 11 88% 75.26 0.0
05 04:55 SW 15 16.09 A Few Clouds FEW025 FEW080 13 11 88% 75.23 0.0
05 04:35 SW 17 16.09 A Few Clouds FEW080 13 11 88% 75.26 0.0
05 04:15 SW 15 16.09 Partly Cloudy SCT080 13 11 88% 75.21 0.0
05 03:56 SW 13 16.09 Fair CLR 13 11 88% 75.21 0.0
05 03:35 W 15 16.09 Fair CLR 13 12 94% 75.23 0.0
05 03:15 SW 13 16.09 A Few Clouds FEW065 13 12 94% 75.18 0.0
05 02:55 SW 15 16.09 Mostly Cloudy BKN070 13 12 94% 75.16 0.0
05 02:35 SW 15 16.09 Overcast OVC065 14 12 88% 75.13 0.0
05 02:15 SW 11 16.09 Overcast OVC065 14 12 88% 75.16 0.0
05 01:55 SW 19 16.09 Mostly Cloudy BKN075 14 12 20.4 13.5 88% 75.13 0.0
05 01:36 SW 19 16.09 Overcast BKN075 OVC090 14 12 88% 75.13 0.0
05 01:15 S 22 16.09 Overcast BKN095 OVC110 14 12 88% 75.08 0.0
05 00:55 S 22 16.09 Mostly Cloudy SCT085 BKN110 14 12 88% 75.08 0.0 0.03
05 00:35 S 28 16.09 Light Rain SCT075 BKN100 14 12 88% 75.11 0.0
05 00:15 SW 24 G 33 14.48 Light Rain FEW075 BKN085 OVC110 14 13 94% 75.18 0.0
04 23:55 S 41 G 54 11.27 Rain Fog/Mist and Breezy BKN075 OVC095 14 12 88% 75.03 0.0 0.41
04 23:35 SW 30 G 44 12.87 Light Rain BKN070 BKN085 14 13 94% 75.13 0.0
04 23:16 SW 30 G 56 6.44 Rain Fog/Mist FEW060 SCT080 14 13 94% 75.16 0.0
04 22:55 NW 11 14.48 Light Rain FEW065 OVC080 14 12 88% 75.16 0.0 0.58
04 22:35 W 15 G 33 16.09 Light Rain SCT060 BKN070 OVC090 14 12 88% 75.21 0.0
04 22:15 W 13 14.48 Light Rain FEW050 BKN070 BKN090 16 12 77% 75.13 0.0
04 21:55 W 26 G 37 14.48 Rain SCT055 BKN080 OVC110 18 13 73% 75.16 0.0 0.08
04 21:35 SW 22 16.09 Light Rain BKN090 BKN110 18 13 73% 75.11 0.0
04 21:15 SW 20 16.09 Mostly Cloudy BKN110 19 12 64% 75.03 0.0
04 20:56 SW 24 16.09 Overcast FEW080 OVC110 19 12 64% 75.01 0.0
04 20:35 SW 24 16.09 Overcast FEW080 OVC110 20 12 60% 75.01 0.0
04 20:15 SW 26 16.09 Mostly Cloudy BKN110 20 12 60% 75.01 0.0
04 19:55 SW 28 G 46 16.09 Mostly Cloudy BKN110 20 12 24.6 18.7 60% 75.01 0.0
04 19:35 SW 35 G 46 16.09 Mostly Cloudy and Breezy BKN110 21 11 53% 75.03 0.0
04 19:15 SW 33 G 52 16.09 Partly Cloudy and Breezy FEW090 SCT120 21 10 50% 75.03 0.0
04 18:55 SW 37 G 59 16.09 Partly Cloudy and Breezy SCT065 SCT090 22 11 50% 75.01 0.0
04 18:36 SW 43 G 65 16.09 Overcast and Windy BKN065 OVC090 23 12 50% 74.98 0.0
04 18:15 SW 39 G 48 16.09 Overcast and Breezy FEW065 OVC090 21 11 53% 74.98 0.0
04 17:55 SW 28 G 44 16.09 Rain FEW025 BKN065 BKN120 21 12 57% 74.98 0.0 0.3
04 17:35 SW 31 G 43 16.09 Mostly Cloudy BKN065 BKN085 BKN100 22 14 61% 74.98 0.0
04 17:15 SW 20 G 37 8.05 Light Rain Haze FEW016 BKN065 OVC085 19 13 68% 75.01 0.0
04 16:55 SW 39 G 50 16.09 Mostly Cloudy and Breezy SCT065 BKN085 24 10 41% 25 75.01 0.0
04 16:35 SW 35 G 44 16.09 Mostly Cloudy and Breezy SCT065 BKN095 24 11 44% 25 75.01 0.0
04 16:16 SW 26 16.09 Partly Cloudy SCT070 SCT085 24 12 47% 25 75.03 0.0
04 15:55 SW 35 16.09 Partly Cloudy and Breezy SCT060 SCT080 SCT095 24 12 47% 25 75.08 0.0
04 15:35 SW 33 16.09 Partly Cloudy and Breezy SCT060 SCT070 SCT080 23 11 47% 75.11 0.0
04 15:15 SW 35 G 43 16.09 Mostly Cloudy and Breezy SCT050 BKN070 23 12 50% 75.13 0.0
Date Time (edt) Wind (kph) Vis. (km) Weather Sky Cond. Air Dwpt Max. Min. Relative Humidity Wind Chill (°C) Heat Index (°C) altimeter (cm) sea level (mb) 1 hr 3 hr 6 hr
6 hour
Temperature (ºC) Pressure Precipitation (cm)